Maggie Valley, NC

5:50 AM EDT on August 29, 2015 (GMT -0400)
VOPC | | Change Station
CLOSE
Current Station
Personal Weather Station
Location: Waynesville, NC
Elevation: 4012 ft
Nearby Weather Stations

Elev 4012 ft 35.49 °N, 83.07 °W | Updated 5 minutes ago

Partly Cloudy
Partly Cloudy
61.5 °F
Feels Like 61.5 °F
N
0.0
Wind Variable Wind from East

Today
High -- | Low -- °F
--% Chance of Precip.
Yesterday
High -- | Low -- °F
Precip. -- in
7:02 AM 8:03 PM
Full, 100% visible
Pressure 30.27 in
Visibility 3.0 miles
Clouds
Dew Point 57 °F
Humidity 84%
Rainfall in
Snow Depth Not available.
UV Not available.
Pollen 8.60 out of 12
Air Quality Not available.
Flu Activity Not available.
METAR K1A5 290935Z AUTO 00000KT 3SM BR 14/14 A3027 RMK AO2 T01440144
Pressure 30.27 in
Visibility 3.0 miles
Clouds
Dew Point 57 °F
Humidity 84%
Rainfall in
Snow Depth Not available.
UV Not available.
Pollen 8.60 out of 12
Air Quality Not available.
Flu Activity Not available.
METAR K1A5 290935Z AUTO 00000KT 3SM BR 14/14 A3027 RMK AO2 T01440144

10-Day Weather Forecast

×

Almanac

Astronomy

Aug. 29, 2015 Rise Set
Actual Time
Civil Twilight
Nautical Twilight
Astronomical Twilight
Moon
Length of Visible Light
Length of Day
Tomorrow will be .
, % of the Moon is Illuminated

Today's Extremes

State Highs State Lows

Community

WunderPhotos

Upload Photos

1,850,634 photos uploaded!

WunderBlogs® & News

Nearby

Air Quality

  Air Quality AQ Index Pollutant
Not available.

Snow Depth

Station Depth Elevation

Earthquake Activity

City Distance Mag. Time & Date
Minimum magnitude displayed is 2.5.

Coastal Water Temperatures

Place Temperature

Stations

Nearby Weather Stations

Station Location Temp. Windchill Dew Point Humidity Wind Precip. Elev Updated Type